createdAt,value
2023-05-19T00:06:34.451Z,1.60
2023-05-19T00:16:39.497Z,1.47
2023-05-19T00:26:41.702Z,1.77
2023-05-19T00:36:46.318Z,1.30
2023-05-19T00:46:56.203Z,1.63
2023-05-19T00:56:59.623Z,1.70
2023-05-19T01:07:04.168Z,1.43
2023-05-19T01:17:23.442Z,1.90
2023-05-19T01:28:03.285Z,2.00
2023-05-19T01:38:10.966Z,1.73
2023-05-19T01:48:18.254Z,2.00
2023-05-19T01:58:21.049Z,2.10
2023-05-19T02:08:49.396Z,1.70
2023-05-19T02:18:55.660Z,1.93
2023-05-19T02:28:57.895Z,2.13
2023-05-19T02:39:02.556Z,2.30
2023-05-19T02:49:05.348Z,2.33
2023-05-19T02:59:10.169Z,2.73
2023-05-19T03:09:13.507Z,3.10
2023-05-19T03:19:15.975Z,3.40
2023-05-19T03:29:18.240Z,3.20
2023-05-19T03:39:24.197Z,3.13
2023-05-19T03:49:29.779Z,3.00
2023-05-19T04:00:11.625Z,3.20
2023-05-19T04:10:16.874Z,3.70
2023-05-19T04:20:22.053Z,3.83
2023-05-19T04:30:26.134Z,3.70
2023-05-19T04:40:33.708Z,3.60
2023-05-19T04:50:42.406Z,3.53
2023-05-19T05:00:45.166Z,3.97
2023-05-19T05:10:48.137Z,3.77
2023-05-19T05:20:52.339Z,2.77
2023-05-19T05:30:56.610Z,3.30
2023-05-19T05:41:03.352Z,3.13
2023-05-19T05:51:07.647Z,3.43
2023-05-19T06:01:12.675Z,3.20
2023-05-19T06:11:15.584Z,3.57
2023-05-19T06:21:20.465Z,3.60
2023-05-19T06:31:23.317Z,4.50
2023-05-19T06:41:35.257Z,3.73
2023-05-19T06:51:42.656Z,3.00
2023-05-19T07:01:49.916Z,4.87
2023-05-19T07:11:57.746Z,3.07
2023-05-19T07:22:02.911Z,3.70
2023-05-19T07:32:07.787Z,3.90
2023-05-19T07:42:14.991Z,4.13
2023-05-19T07:52:19.557Z,4.50
2023-05-19T08:02:24.450Z,5.23
2023-05-19T08:12:26.993Z,5.27
2023-05-19T08:22:32.510Z,4.50
2023-05-19T08:32:35.358Z,4.50
2023-05-19T08:42:37.900Z,4.13
2023-05-19T08:52:53.512Z,4.23
2023-05-19T09:03:06.165Z,5.07
2023-05-19T09:13:21.176Z,4.63
2023-05-19T09:23:29.252Z,4.20
2023-05-19T09:33:38.711Z,5.77
2023-05-19T09:43:41.020Z,5.03
2023-05-19T09:53:50.926Z,5.53
2023-05-19T10:03:54.966Z,4.07
2023-05-19T10:13:57.349Z,4.30
2023-05-19T10:24:04.364Z,4.00
2023-05-19T10:34:19.667Z,3.97
2023-05-19T10:44:41.951Z,4.57
2023-05-19T10:54:46.712Z,4.50
2023-05-19T11:04:52.072Z,4.57
2023-05-19T11:15:00.015Z,4.93
2023-05-19T11:25:02.356Z,4.95
2023-05-19T11:35:04.975Z,4.20
2023-05-19T11:45:13.914Z,3.75
2023-05-19T11:55:23.452Z,4.25
2023-05-19T12:05:36.635Z,4.68
2023-05-19T12:15:41.414Z,3.70
2023-05-19T12:25:45.952Z,3.67
2023-05-19T12:35:50.216Z,3.92
2023-05-19T12:45:54.885Z,4.47
2023-05-19T12:55:59.652Z,4.32
2023-05-19T13:06:04.984Z,4.53
2023-05-19T13:16:08.603Z,3.95
2023-05-19T13:26:14.066Z,4.75
2023-05-19T13:36:21.246Z,5.00
2023-05-19T13:46:36.368Z,4.70
2023-05-19T13:56:48.847Z,4.40
2023-05-19T14:06:53.263Z,4.10
2023-05-19T14:17:01.570Z,4.47
2023-05-19T14:27:07.611Z,4.60
2023-05-19T14:37:12.673Z,4.35
2023-05-19T14:47:16.863Z,4.82
2023-05-19T14:57:21.308Z,4.47
2023-05-19T15:07:26.352Z,5.00
2023-05-19T15:17:28.694Z,4.70
2023-05-19T15:27:37.602Z,4.95
2023-05-19T15:37:42.221Z,4.63
2023-05-19T15:47:45.157Z,5.10
2023-05-19T15:57:52.832Z,4.90
2023-05-19T16:07:55.015Z,6.20
2023-05-19T16:18:02.067Z,5.07
2023-05-19T16:28:11.291Z,6.28
2023-05-19T16:38:13.541Z,5.43
2023-05-19T16:48:20.302Z,5.97
2023-05-19T16:58:26.561Z,5.55
2023-05-19T17:08:34.617Z,5.93
2023-05-19T17:18:37.681Z,5.60
2023-05-19T17:28:43.624Z,5.75
2023-05-19T17:38:45.903Z,5.53
2023-05-19T17:48:53.851Z,6.15
2023-05-19T17:59:01.859Z,6.18
2023-05-19T18:09:06.316Z,6.80
2023-05-19T18:19:11.497Z,7.15
2023-05-19T18:29:14.878Z,6.68
2023-05-19T18:39:17.022Z,6.38
2023-05-19T18:49:20.226Z,6.47
2023-05-19T18:59:27.880Z,7.07
2023-05-19T19:09:30.132Z,6.97
2023-05-19T19:19:35.945Z,7.20
2023-05-19T19:29:38.747Z,8.45
2023-05-19T19:39:41.980Z,7.50
2023-05-19T19:49:46.340Z,6.75
2023-05-19T19:59:55.420Z,6.80
2023-05-19T20:10:02.095Z,6.78
2023-05-19T20:20:11.991Z,6.57
2023-05-19T20:30:16.631Z,7.35
2023-05-19T20:40:19.023Z,7.35
2023-05-19T20:50:23.647Z,6.78
2023-05-19T21:00:30.242Z,8.10
2023-05-19T21:10:35.799Z,10.23
2023-05-19T21:20:40.329Z,8.80
2023-05-19T21:30:42.556Z,9.02
2023-05-19T21:40:47.428Z,8.88
2023-05-19T21:50:56.426Z,8.48
2023-05-19T22:01:01.060Z,9.80
2023-05-19T22:11:06.962Z,8.50
2023-05-19T22:21:16.260Z,7.82
2023-05-19T22:31:20.959Z,7.20
2023-05-19T22:41:24.040Z,6.50
2023-05-19T22:51:28.672Z,6.28
2023-05-19T23:01:30.878Z,6.50
2023-05-19T23:11:34.334Z,6.68
2023-05-19T23:21:36.626Z,6.20
2023-05-19T23:31:44.627Z,6.10
2023-05-19T23:41:49.373Z,6.55
2023-05-19T23:51:56.574Z,6.70
